sensor_id;sensor_type;location;lat;lon;timestamp;P1;durP1;ratioP1;P2;durP2;ratioP2
40807;SDS011;26523;52.504;13.498;2023-08-01T00:01:31;4.45;;;2.13;;
40807;SDS011;26523;52.504;13.498;2023-08-01T00:03:57;9.10;;;2.50;;
40807;SDS011;26523;52.504;13.498;2023-08-01T00:06:23;10.45;;;2.40;;
40807;SDS011;26523;52.504;13.498;2023-08-01T00:08:50;7.63;;;2.58;;
40807;SDS011;26523;52.504;13.498;2023-08-01T00:11:16;8.18;;;2.88;;
40807;SDS011;26523;52.504;13.498;2023-08-01T00:13:41;3.92;;;2.10;;
40807;SDS011;26523;52.504;13.498;2023-08-01T00:16:08;5.32;;;1.90;;
40807;SDS011;26523;52.504;13.498;2023-08-01T00:18:34;5.97;;;2.50;;
40807;SDS011;26523;52.504;13.498;2023-08-01T00:21:00;12.27;;;3.63;;
40807;SDS011;26523;52.504;13.498;2023-08-01T00:23:29;9.32;;;2.47;;
40807;SDS011;26523;52.504;13.498;2023-08-01T00:25:55;7.55;;;2.50;;
40807;SDS011;26523;52.504;13.498;2023-08-01T00:28:23;6.57;;;2.78;;
40807;SDS011;26523;52.504;13.498;2023-08-01T00:30:49;6.47;;;2.90;;
40807;SDS011;26523;52.504;13.498;2023-08-01T00:33:15;7.18;;;2.55;;
40807;SDS011;26523;52.504;13.498;2023-08-01T00:45:47;4.63;;;2.15;;
40807;SDS011;26523;52.504;13.498;2023-08-01T00:48:13;8.35;;;2.15;;
40807;SDS011;26523;52.504;13.498;2023-08-01T00:50:39;5.35;;;2.25;;
40807;SDS011;26523;52.504;13.498;2023-08-01T00:53:06;2.58;;;1.42;;
40807;SDS011;26523;52.504;13.498;2023-08-01T00:55:32;2.63;;;1.60;;
40807;SDS011;26523;52.504;13.498;2023-08-01T00:57:59;4.50;;;1.95;;
40807;SDS011;26523;52.504;13.498;2023-08-01T01:00:25;3.97;;;2.28;;
40807;SDS011;26523;52.504;13.498;2023-08-01T01:02:51;5.90;;;2.80;;
40807;SDS011;26523;52.504;13.498;2023-08-01T01:05:17;7.53;;;2.35;;
40807;SDS011;26523;52.504;13.498;2023-08-01T01:07:44;5.55;;;2.13;;
40807;SDS011;26523;52.504;13.498;2023-08-01T01:10:12;5.25;;;2.00;;
40807;SDS011;26523;52.504;13.498;2023-08-01T01:12:38;7.63;;;1.98;;
40807;SDS011;26523;52.504;13.498;2023-08-01T01:15:05;9.27;;;4.05;;
40807;SDS011;26523;52.504;13.498;2023-08-01T01:17:35;11.90;;;3.28;;
40807;SDS011;26523;52.504;13.498;2023-08-01T01:20:01;5.72;;;2.17;;
40807;SDS011;26523;52.504;13.498;2023-08-01T01:22:28;6.95;;;2.00;;
40807;SDS011;26523;52.504;13.498;2023-08-01T01:24:55;4.63;;;2.00;;
40807;SDS011;26523;52.504;13.498;2023-08-01T01:27:25;7.78;;;2.42;;
40807;SDS011;26523;52.504;13.498;2023-08-01T01:29:51;5.43;;;2.40;;
40807;SDS011;26523;52.504;13.498;2023-08-01T01:32:18;7.10;;;2.10;;
40807;SDS011;26523;52.504;13.498;2023-08-01T01:34:47;7.40;;;2.40;;
40807;SDS011;26523;52.504;13.498;2023-08-01T01:37:12;5.03;;;2.20;;
40807;SDS011;26523;52.504;13.498;2023-08-01T01:39:38;5.15;;;2.42;;
40807;SDS011;26523;52.504;13.498;2023-08-01T01:42:04;7.47;;;2.40;;
40807;SDS011;26523;52.504;13.498;2023-08-01T01:44:30;6.07;;;2.03;;
40807;SDS011;26523;52.504;13.498;2023-08-01T01:46:56;6.35;;;2.90;;
40807;SDS011;26523;52.504;13.498;2023-08-01T01:49:22;5.47;;;2.10;;
40807;SDS011;26523;52.504;13.498;2023-08-01T01:51:50;4.65;;;2.22;;
40807;SDS011;26523;52.504;13.498;2023-08-01T01:54:20;9.65;;;2.58;;
40807;SDS011;26523;52.504;13.498;2023-08-01T01:56:47;5.75;;;2.40;;
40807;SDS011;26523;52.504;13.498;2023-08-01T01:59:13;5.95;;;2.55;;
40807;SDS011;26523;52.504;13.498;2023-08-01T02:01:38;5.95;;;2.55;;
40807;SDS011;26523;52.504;13.498;2023-08-01T02:04:04;8.45;;;2.60;;
40807;SDS011;26523;52.504;13.498;2023-08-01T02:06:29;7.30;;;2.67;;
40807;SDS011;26523;52.504;13.498;2023-08-01T02:08:55;7.88;;;2.67;;
40807;SDS011;26523;52.504;13.498;2023-08-01T02:11:21;9.57;;;2.92;;
40807;SDS011;26523;52.504;13.498;2023-08-01T02:13:46;6.03;;;2.78;;
40807;SDS011;26523;52.504;13.498;2023-08-01T02:16:12;8.18;;;2.90;;
40807;SDS011;26523;52.504;13.498;2023-08-01T02:18:37;5.95;;;2.80;;
40807;SDS011;26523;52.504;13.498;2023-08-01T02:21:03;5.78;;;2.63;;
40807;SDS011;26523;52.504;13.498;2023-08-01T02:23:29;6.30;;;2.95;;
40807;SDS011;26523;52.504;13.498;2023-08-01T02:25:54;5.45;;;2.53;;
40807;SDS011;26523;52.504;13.498;2023-08-01T02:28:21;7.57;;;2.50;;
40807;SDS011;26523;52.504;13.498;2023-08-01T02:30:47;10.13;;;3.00;;
40807;SDS011;26523;52.504;13.498;2023-08-01T02:33:15;7.60;;;2.40;;
40807;SDS011;26523;52.504;13.498;2023-08-01T02:35:41;7.25;;;2.83;;
40807;SDS011;26523;52.504;13.498;2023-08-01T02:38:06;5.38;;;2.67;;
40807;SDS011;26523;52.504;13.498;2023-08-01T02:40:32;5.47;;;2.33;;
40807;SDS011;26523;52.504;13.498;2023-08-01T02:42:58;7.00;;;3.00;;
40807;SDS011;26523;52.504;13.498;2023-08-01T02:45:24;9.55;;;2.90;;
40807;SDS011;26523;52.504;13.498;2023-08-01T02:47:50;8.20;;;3.00;;
40807;SDS011;26523;52.504;13.498;2023-08-01T02:50:15;5.75;;;2.58;;
40807;SDS011;26523;52.504;13.498;2023-08-01T02:52:41;7.22;;;3.35;;
40807;SDS011;26523;52.504;13.498;2023-08-01T02:55:07;7.00;;;3.47;;
40807;SDS011;26523;52.504;13.498;2023-08-01T02:57:33;6.20;;;2.97;;
40807;SDS011;26523;52.504;13.498;2023-08-01T02:59:58;4.32;;;2.33;;
40807;SDS011;26523;52.504;13.498;2023-08-01T03:02:24;8.23;;;3.13;;
40807;SDS011;26523;52.504;13.498;2023-08-01T03:04:50;10.35;;;2.97;;
40807;SDS011;26523;52.504;13.498;2023-08-01T03:07:15;4.78;;;2.65;;
40807;SDS011;26523;52.504;13.498;2023-08-01T03:09:41;9.68;;;3.25;;
40807;SDS011;26523;52.504;13.498;2023-08-01T03:12:08;7.00;;;3.05;;
40807;SDS011;26523;52.504;13.498;2023-08-01T03:14:34;5.40;;;2.40;;
40807;SDS011;26523;52.504;13.498;2023-08-01T03:17:01;5.35;;;2.95;;
40807;SDS011;26523;52.504;13.498;2023-08-01T03:19:28;10.88;;;2.92;;
40807;SDS011;26523;52.504;13.498;2023-08-01T03:21:53;7.85;;;2.70;;
40807;SDS011;26523;52.504;13.498;2023-08-01T03:24:20;5.88;;;2.33;;
40807;SDS011;26523;52.504;13.498;2023-08-01T03:26:45;5.18;;;2.63;;
40807;SDS011;26523;52.504;13.498;2023-08-01T03:29:11;7.43;;;2.45;;
40807;SDS011;26523;52.504;13.498;2023-08-01T03:31:37;8.00;;;2.95;;
40807;SDS011;26523;52.504;13.498;2023-08-01T03:34:04;8.38;;;2.97;;
40807;SDS011;26523;52.504;13.498;2023-08-01T03:36:29;8.32;;;2.60;;
40807;SDS011;26523;52.504;13.498;2023-08-01T03:38:56;9.85;;;2.40;;
40807;SDS011;26523;52.504;13.498;2023-08-01T03:41:22;10.70;;;3.13;;
40807;SDS011;26523;52.504;13.498;2023-08-01T03:43:54;8.32;;;3.30;;
40807;SDS011;26523;52.504;13.498;2023-08-01T03:46:21;8.32;;;2.50;;
40807;SDS011;26523;52.504;13.498;2023-08-01T03:48:47;5.15;;;2.75;;
40807;SDS011;26523;52.504;13.498;2023-08-01T03:51:12;4.28;;;2.20;;
40807;SDS011;26523;52.504;13.498;2023-08-01T03:53:40;9.32;;;2.95;;
40807;SDS011;26523;52.504;13.498;2023-08-01T03:56:07;5.97;;;2.80;;
40807;SDS011;26523;52.504;13.498;2023-08-01T03:58:33;7.15;;;3.20;;
40807;SDS011;26523;52.504;13.498;2023-08-01T04:00:59;5.95;;;2.70;;
40807;SDS011;26523;52.504;13.498;2023-08-01T04:03:26;5.07;;;2.50;;
40807;SDS011;26523;52.504;13.498;2023-08-01T04:05:51;5.45;;;2.25;;
40807;SDS011;26523;52.504;13.498;2023-08-01T04:08:17;4.95;;;2.38;;
40807;SDS011;26523;52.504;13.498;2023-08-01T04:10:44;7.28;;;2.75;;
40807;SDS011;26523;52.504;13.498;2023-08-01T04:13:10;4.30;;;2.45;;
40807;SDS011;26523;52.504;13.498;2023-08-01T04:15:36;4.88;;;2.22;;
40807;SDS011;26523;52.504;13.498;2023-08-01T04:18:02;8.00;;;3.25;;
40807;SDS011;26523;52.504;13.498;2023-08-01T04:20:29;9.43;;;3.42;;
40807;SDS011;26523;52.504;13.498;2023-08-01T04:22:55;12.68;;;5.90;;
40807;SDS011;26523;52.504;13.498;2023-08-01T04:25:21;12.65;;;4.03;;
40807;SDS011;26523;52.504;13.498;2023-08-01T04:27:49;5.57;;;2.65;;
40807;SDS011;26523;52.504;13.498;2023-08-01T04:30:16;5.70;;;2.38;;
40807;SDS011;26523;52.504;13.498;2023-08-01T04:32:42;8.02;;;2.92;;
40807;SDS011;26523;52.504;13.498;2023-08-01T04:35:07;5.57;;;1.95;;
40807;SDS011;26523;52.504;13.498;2023-08-01T04:37:33;7.07;;;2.72;;
40807;SDS011;26523;52.504;13.498;2023-08-01T04:39:59;4.65;;;2.45;;
40807;SDS011;26523;52.504;13.498;2023-08-01T04:42:24;5.63;;;2.38;;
40807;SDS011;26523;52.504;13.498;2023-08-01T04:44:50;4.53;;;1.98;;
40807;SDS011;26523;52.504;13.498;2023-08-01T04:47:18;5.95;;;2.42;;
40807;SDS011;26523;52.504;13.498;2023-08-01T04:49:46;3.25;;;1.77;;
40807;SDS011;26523;52.504;13.498;2023-08-01T04:52:12;7.25;;;1.95;;
40807;SDS011;26523;52.504;13.498;2023-08-01T04:54:39;6.22;;;2.30;;
40807;SDS011;26523;52.504;13.498;2023-08-01T04:57:05;5.28;;;2.80;;
40807;SDS011;26523;52.504;13.498;2023-08-01T04:59:31;4.90;;;2.20;;
40807;SDS011;26523;52.504;13.498;2023-08-01T05:01:59;7.30;;;2.40;;
40807;SDS011;26523;52.504;13.498;2023-08-01T05:04:24;5.30;;;2.30;;
40807;SDS011;26523;52.504;13.498;2023-08-01T05:06:50;7.45;;;2.20;;
40807;SDS011;26523;52.504;13.498;2023-08-01T05:09:17;6.75;;;2.55;;
40807;SDS011;26523;52.504;13.498;2023-08-01T05:11:43;5.50;;;2.70;;
40807;SDS011;26523;52.504;13.498;2023-08-01T05:14:08;6.85;;;2.67;;
40807;SDS011;26523;52.504;13.498;2023-08-01T05:16:34;7.25;;;2.50;;
40807;SDS011;26523;52.504;13.498;2023-08-01T05:19:00;5.22;;;2.30;;
40807;SDS011;26523;52.504;13.498;2023-08-01T05:21:26;4.40;;;2.17;;
40807;SDS011;26523;52.504;13.498;2023-08-01T05:23:52;6.43;;;2.42;;
40807;SDS011;26523;52.504;13.498;2023-08-01T05:26:18;4.03;;;2.22;;
40807;SDS011;26523;52.504;13.498;2023-08-01T05:28:44;5.15;;;2.22;;
40807;SDS011;26523;52.504;13.498;2023-08-01T05:31:11;9.32;;;2.53;;
40807;SDS011;26523;52.504;13.498;2023-08-01T05:33:36;7.10;;;2.83;;
40807;SDS011;26523;52.504;13.498;2023-08-01T05:36:04;5.32;;;2.67;;
40807;SDS011;26523;52.504;13.498;2023-08-01T05:38:30;5.53;;;2.22;;
40807;SDS011;26523;52.504;13.498;2023-08-01T05:40:55;5.30;;;2.30;;
40807;SDS011;26523;52.504;13.498;2023-08-01T05:43:21;6.60;;;2.10;;
40807;SDS011;26523;52.504;13.498;2023-08-01T05:45:47;4.97;;;2.08;;
40807;SDS011;26523;52.504;13.498;2023-08-01T05:48:13;4.10;;;2.03;;
40807;SDS011;26523;52.504;13.498;2023-08-01T05:50:39;8.60;;;2.90;;
40807;SDS011;26523;52.504;13.498;2023-08-01T05:53:06;4.90;;;2.25;;
40807;SDS011;26523;52.504;13.498;2023-08-01T05:55:33;6.88;;;2.55;;
40807;SDS011;26523;52.504;13.498;2023-08-01T05:58:00;4.15;;;2.33;;
40807;SDS011;26523;52.504;13.498;2023-08-01T06:00:26;6.20;;;2.05;;
40807;SDS011;26523;52.504;13.498;2023-08-01T06:02:53;6.82;;;2.50;;
40807;SDS011;26523;52.504;13.498;2023-08-01T06:05:18;7.80;;;2.10;;
40807;SDS011;26523;52.504;13.498;2023-08-01T06:07:45;5.20;;;2.80;;
40807;SDS011;26523;52.504;13.498;2023-08-01T06:10:11;6.40;;;2.03;;
40807;SDS011;26523;52.504;13.498;2023-08-01T06:12:36;4.28;;;1.83;;
40807;SDS011;26523;52.504;13.498;2023-08-01T06:15:03;5.82;;;2.17;;
40807;SDS011;26523;52.504;13.498;2023-08-01T06:17:30;4.70;;;1.83;;
40807;SDS011;26523;52.504;13.498;2023-08-01T06:19:56;8.25;;;2.28;;
40807;SDS011;26523;52.504;13.498;2023-08-01T06:22:24;4.05;;;1.90;;
40807;SDS011;26523;52.504;13.498;2023-08-01T06:24:50;3.92;;;1.83;;
40807;SDS011;26523;52.504;13.498;2023-08-01T06:27:15;5.80;;;2.20;;
40807;SDS011;26523;52.504;13.498;2023-08-01T06:29:42;6.45;;;2.20;;
40807;SDS011;26523;52.504;13.498;2023-08-01T06:32:08;5.32;;;1.80;;
40807;SDS011;26523;52.504;13.498;2023-08-01T06:34:35;5.35;;;2.17;;
40807;SDS011;26523;52.504;13.498;2023-08-01T06:37:01;3.90;;;1.88;;
40807;SDS011;26523;52.504;13.498;2023-08-01T06:39:26;8.90;;;2.10;;
40807;SDS011;26523;52.504;13.498;2023-08-01T06:41:52;6.65;;;2.15;;
40807;SDS011;26523;52.504;13.498;2023-08-01T06:44:18;4.22;;;2.05;;
40807;SDS011;26523;52.504;13.498;2023-08-01T06:46:43;6.65;;;1.88;;
40807;SDS011;26523;52.504;13.498;2023-08-01T06:49:09;6.30;;;1.90;;
40807;SDS011;26523;52.504;13.498;2023-08-01T06:51:35;3.90;;;1.80;;
40807;SDS011;26523;52.504;13.498;2023-08-01T06:54:02;4.57;;;1.80;;
40807;SDS011;26523;52.504;13.498;2023-08-01T06:56:32;5.32;;;2.10;;
40807;SDS011;26523;52.504;13.498;2023-08-01T06:58:58;7.45;;;1.80;;
40807;SDS011;26523;52.504;13.498;2023-08-01T07:01:24;4.28;;;2.10;;
40807;SDS011;26523;52.504;13.498;2023-08-01T07:03:49;4.35;;;1.95;;
40807;SDS011;26523;52.504;13.498;2023-08-01T07:06:17;4.20;;;2.03;;
40807;SDS011;26523;52.504;13.498;2023-08-01T07:08:43;7.22;;;2.13;;
40807;SDS011;26523;52.504;13.498;2023-08-01T07:11:08;5.38;;;3.15;;
40807;SDS011;26523;52.504;13.498;2023-08-01T07:13:34;4.65;;;2.28;;
40807;SDS011;26523;52.504;13.498;2023-08-01T07:16:00;5.35;;;1.90;;
40807;SDS011;26523;52.504;13.498;2023-08-01T07:18:25;3.70;;;1.80;;
40807;SDS011;26523;52.504;13.498;2023-08-01T07:21:04;4.13;;;2.00;;
40807;SDS011;26523;52.504;13.498;2023-08-01T07:23:33;6.18;;;2.15;;
40807;SDS011;26523;52.504;13.498;2023-08-01T07:25:59;7.35;;;3.22;;
40807;SDS011;26523;52.504;13.498;2023-08-01T07:28:25;11.95;;;3.97;;
40807;SDS011;26523;52.504;13.498;2023-08-01T07:30:57;3.92;;;1.88;;
40807;SDS011;26523;52.504;13.498;2023-08-01T07:33:27;5.57;;;2.15;;
40807;SDS011;26523;52.504;13.498;2023-08-01T07:35:53;9.13;;;4.65;;
40807;SDS011;26523;52.504;13.498;2023-08-01T07:38:20;8.15;;;2.65;;
40807;SDS011;26523;52.504;13.498;2023-08-01T07:40:47;4.53;;;2.20;;
40807;SDS011;26523;52.504;13.498;2023-08-01T07:43:13;4.47;;;1.67;;
40807;SDS011;26523;52.504;13.498;2023-08-01T07:45:39;4.25;;;2.00;;
40807;SDS011;26523;52.504;13.498;2023-08-01T07:48:04;4.30;;;1.60;;
40807;SDS011;26523;52.504;13.498;2023-08-01T07:50:30;4.72;;;2.30;;
40807;SDS011;26523;52.504;13.498;2023-08-01T07:52:56;4.25;;;1.77;;
40807;SDS011;26523;52.504;13.498;2023-08-01T07:55:22;3.90;;;1.88;;
40807;SDS011;26523;52.504;13.498;2023-08-01T07:57:49;6.70;;;1.90;;
40807;SDS011;26523;52.504;13.498;2023-08-01T08:00:15;4.13;;;2.47;;
40807;SDS011;26523;52.504;13.498;2023-08-01T08:02:41;5.97;;;2.58;;
40807;SDS011;26523;52.504;13.498;2023-08-01T08:05:08;4.68;;;1.58;;
40807;SDS011;26523;52.504;13.498;2023-08-01T08:07:38;3.22;;;1.45;;
40807;SDS011;26523;52.504;13.498;2023-08-01T08:10:05;3.05;;;1.60;;
40807;SDS011;26523;52.504;13.498;2023-08-01T08:12:31;6.95;;;2.70;;
40807;SDS011;26523;52.504;13.498;2023-08-01T08:14:57;3.72;;;1.90;;
40807;SDS011;26523;52.504;13.498;2023-08-01T08:17:24;4.70;;;1.70;;
40807;SDS011;26523;52.504;13.498;2023-08-01T08:19:52;3.72;;;1.88;;
40807;SDS011;26523;52.504;13.498;2023-08-01T08:22:17;4.82;;;2.15;;
40807;SDS011;26523;52.504;13.498;2023-08-01T08:24:43;5.72;;;1.55;;
40807;SDS011;26523;52.504;13.498;2023-08-01T08:27:08;3.75;;;1.33;;
40807;SDS011;26523;52.504;13.498;2023-08-01T08:29:34;6.32;;;3.20;;
40807;SDS011;26523;52.504;13.498;2023-08-01T08:32:00;3.58;;;1.50;;
40807;SDS011;26523;52.504;13.498;2023-08-01T08:34:26;4.25;;;1.67;;
40807;SDS011;26523;52.504;13.498;2023-08-01T08:36:52;6.43;;;2.50;;
40807;SDS011;26523;52.504;13.498;2023-08-01T08:39:19;2.63;;;1.20;;
40807;SDS011;26523;52.504;13.498;2023-08-01T08:41:48;4.93;;;1.40;;
40807;SDS011;26523;52.504;13.498;2023-08-01T08:44:17;5.43;;;1.70;;
40807;SDS011;26523;52.504;13.498;2023-08-01T08:46:47;3.85;;;1.33;;
40807;SDS011;26523;52.504;13.498;2023-08-01T08:49:19;4.90;;;1.48;;
40807;SDS011;26523;52.504;13.498;2023-08-01T08:51:46;3.17;;;1.20;;
40807;SDS011;26523;52.504;13.498;2023-08-01T08:54:13;3.58;;;1.05;;
40807;SDS011;26523;52.504;13.498;2023-08-01T08:56:41;2.28;;;1.20;;
40807;SDS011;26523;52.504;13.498;2023-08-01T08:59:07;2.97;;;1.13;;
40807;SDS011;26523;52.504;13.498;2023-08-01T09:01:35;2.75;;;1.10;;
40807;SDS011;26523;52.504;13.498;2023-08-01T09:04:01;2.95;;;1.20;;
40807;SDS011;26523;52.504;13.498;2023-08-01T09:06:30;3.50;;;1.20;;
40807;SDS011;26523;52.504;13.498;2023-08-01T09:09:03;3.63;;;1.02;;
40807;SDS011;26523;52.504;13.498;2023-08-01T09:11:46;4.20;;;1.25;;
40807;SDS011;26523;52.504;13.498;2023-08-01T09:14:16;8.07;;;1.25;;
40807;SDS011;26523;52.504;13.498;2023-08-01T09:16:44;4.68;;;1.38;;
40807;SDS011;26523;52.504;13.498;2023-08-01T09:19:15;4.68;;;1.20;;
40807;SDS011;26523;52.504;13.498;2023-08-01T09:21:45;6.97;;;1.10;;
40807;SDS011;26523;52.504;13.498;2023-08-01T09:24:13;1.85;;;0.90;;
40807;SDS011;26523;52.504;13.498;2023-08-01T09:26:41;1.40;;;0.90;;
40807;SDS011;26523;52.504;13.498;2023-08-01T09:29:08;2.33;;;1.13;;
40807;SDS011;26523;52.504;13.498;2023-08-01T09:31:36;2.58;;;1.20;;
40807;SDS011;26523;52.504;13.498;2023-08-01T09:34:17;1.73;;;0.75;;
40807;SDS011;26523;52.504;13.498;2023-08-01T09:36:50;2.85;;;0.90;;
40807;SDS011;26523;52.504;13.498;2023-08-01T09:39:17;4.85;;;1.02;;
40807;SDS011;26523;52.504;13.498;2023-08-01T09:41:44;2.08;;;0.52;;
40807;SDS011;26523;52.504;13.498;2023-08-01T09:44:11;1.15;;;0.70;;
40807;SDS011;26523;52.504;13.498;2023-08-01T09:46:40;3.53;;;0.90;;
40807;SDS011;26523;52.504;13.498;2023-08-01T09:49:08;1.27;;;0.80;;
40807;SDS011;26523;52.504;13.498;2023-08-01T09:51:45;2.10;;;1.00;;
40807;SDS011;26523;52.504;13.498;2023-08-01T09:54:12;1.35;;;0.70;;
40807;SDS011;26523;52.504;13.498;2023-08-01T09:56:37;2.20;;;0.85;;
40807;SDS011;26523;52.504;13.498;2023-08-01T09:59:04;3.53;;;0.70;;
40807;SDS011;26523;52.504;13.498;2023-08-01T10:01:32;1.02;;;0.60;;
40807;SDS011;26523;52.504;13.498;2023-08-01T10:03:58;0.82;;;0.50;;
40807;SDS011;26523;52.504;13.498;2023-08-01T10:06:26;1.33;;;0.50;;
40807;SDS011;26523;52.504;13.498;2023-08-01T10:08:56;1.30;;;0.45;;
40807;SDS011;26523;52.504;13.498;2023-08-01T10:11:23;1.75;;;0.65;;
40807;SDS011;26523;52.504;13.498;2023-08-01T10:13:49;1.10;;;0.40;;
40807;SDS011;26523;52.504;13.498;2023-08-01T10:16:15;1.75;;;0.47;;
40807;SDS011;26523;52.504;13.498;2023-08-01T10:18:42;1.10;;;0.63;;
40807;SDS011;26523;52.504;13.498;2023-08-01T10:21:10;2.03;;;0.55;;
40807;SDS011;26523;52.504;13.498;2023-08-01T10:23:38;0.60;;;0.47;;
40807;SDS011;26523;52.504;13.498;2023-08-01T10:26:05;0.75;;;0.57;;
40807;SDS011;26523;52.504;13.498;2023-08-01T10:28:34;1.60;;;0.63;;
40807;SDS011;26523;52.504;13.498;2023-08-01T10:31:07;1.08;;;0.70;;
40807;SDS011;26523;52.504;13.498;2023-08-01T10:33:34;0.95;;;0.68;;
40807;SDS011;26523;52.504;13.498;2023-08-01T10:36:11;3.45;;;0.90;;
40807;SDS011;26523;52.504;13.498;2023-08-01T10:41:26;1.25;;;0.30;;
40807;SDS011;26523;52.504;13.498;2023-08-01T10:44:31;0.70;;;0.40;;
40807;SDS011;26523;52.504;13.498;2023-08-01T10:46:56;1.33;;;0.50;;
40807;SDS011;26523;52.504;13.498;2023-08-01T10:52:24;0.95;;;0.55;;
40807;SDS011;26523;52.504;13.498;2023-08-01T10:54:55;0.82;;;0.57;;
40807;SDS011;26523;52.504;13.498;2023-08-01T10:57:26;0.65;;;0.47;;
40807;SDS011;26523;52.504;13.498;2023-08-01T10:59:54;2.58;;;0.88;;
40807;SDS011;26523;52.504;13.498;2023-08-01T11:02:22;0.93;;;0.40;;
40807;SDS011;26523;52.504;13.498;2023-08-01T11:05:00;3.42;;;0.68;;
40807;SDS011;26523;52.504;13.498;2023-08-01T11:07:28;5.68;;;1.10;;
40807;SDS011;26523;52.504;13.498;2023-08-01T11:12:36;2.92;;;1.00;;
40807;SDS011;26523;52.504;13.498;2023-08-01T11:15:04;0.80;;;0.60;;
40807;SDS011;26523;52.504;13.498;2023-08-01T11:17:33;2.58;;;0.98;;
40807;SDS011;26523;52.504;13.498;2023-08-01T11:20:01;2.20;;;1.00;;
40807;SDS011;26523;52.504;13.498;2023-08-01T11:22:29;4.50;;;0.82;;
40807;SDS011;26523;52.504;13.498;2023-08-01T11:24:54;2.03;;;0.75;;
40807;SDS011;26523;52.504;13.498;2023-08-01T11:27:21;1.77;;;0.82;;
40807;SDS011;26523;52.504;13.498;2023-08-01T11:29:47;1.88;;;0.85;;
40807;SDS011;26523;52.504;13.498;2023-08-01T11:32:12;1.27;;;0.68;;
40807;SDS011;26523;52.504;13.498;2023-08-01T11:34:41;2.83;;;1.05;;
40807;SDS011;26523;52.504;13.498;2023-08-01T11:37:11;3.00;;;1.13;;
40807;SDS011;26523;52.504;13.498;2023-08-01T11:39:43;1.83;;;1.00;;
40807;SDS011;26523;52.504;13.498;2023-08-01T11:42:14;4.30;;;0.90;;
40807;SDS011;26523;52.504;13.498;2023-08-01T11:44:41;2.08;;;1.00;;
40807;SDS011;26523;52.504;13.498;2023-08-01T11:47:11;1.80;;;1.00;;
40807;SDS011;26523;52.504;13.498;2023-08-01T11:49:38;2.08;;;1.17;;
40807;SDS011;26523;52.504;13.498;2023-08-01T11:52:04;1.98;;;0.93;;
40807;SDS011;26523;52.504;13.498;2023-08-01T11:54:30;2.08;;;1.38;;
40807;SDS011;26523;52.504;13.498;2023-08-01T11:57:00;3.10;;;1.15;;
40807;SDS011;26523;52.504;13.498;2023-08-01T11:59:26;3.60;;;1.52;;
40807;SDS011;26523;52.504;13.498;2023-08-01T12:01:52;4.30;;;1.48;;
40807;SDS011;26523;52.504;13.498;2023-08-01T12:04:24;4.30;;;1.48;;
40807;SDS011;26523;52.504;13.498;2023-08-01T12:06:51;3.13;;;1.60;;
40807;SDS011;26523;52.504;13.498;2023-08-01T12:09:16;5.00;;;1.55;;
40807;SDS011;26523;52.504;13.498;2023-08-01T12:11:44;4.88;;;1.90;;
40807;SDS011;26523;52.504;13.498;2023-08-01T12:14:12;3.20;;;1.60;;
40807;SDS011;26523;52.504;13.498;2023-08-01T12:16:45;2.85;;;1.40;;
40807;SDS011;26523;52.504;13.498;2023-08-01T12:19:18;3.30;;;1.95;;
40807;SDS011;26523;52.504;13.498;2023-08-01T12:21:47;4.28;;;1.85;;
40807;SDS011;26523;52.504;13.498;2023-08-01T12:24:13;3.97;;;2.40;;
40807;SDS011;26523;52.504;13.498;2023-08-01T12:26:40;9.77;;;1.85;;
40807;SDS011;26523;52.504;13.498;2023-08-01T12:29:06;2.97;;;1.70;;
40807;SDS011;26523;52.504;13.498;2023-08-01T12:31:32;4.25;;;1.83;;
40807;SDS011;26523;52.504;13.498;2023-08-01T12:34:00;8.02;;;1.95;;
40807;SDS011;26523;52.504;13.498;2023-08-01T12:36:25;4.50;;;2.05;;
40807;SDS011;26523;52.504;13.498;2023-08-01T12:38:51;5.15;;;1.58;;
40807;SDS011;26523;52.504;13.498;2023-08-01T12:41:18;10.00;;;1.83;;
40807;SDS011;26523;52.504;13.498;2023-08-01T12:43:44;8.88;;;1.80;;
40807;SDS011;26523;52.504;13.498;2023-08-01T12:46:09;3.80;;;1.65;;
40807;SDS011;26523;52.504;13.498;2023-08-01T12:48:35;3.65;;;2.05;;
40807;SDS011;26523;52.504;13.498;2023-08-01T12:51:02;6.20;;;2.92;;
40807;SDS011;26523;52.504;13.498;2023-08-01T12:53:28;4.18;;;1.80;;
40807;SDS011;26523;52.504;13.498;2023-08-01T12:55:53;4.25;;;2.15;;
40807;SDS011;26523;52.504;13.498;2023-08-01T12:58:19;4.28;;;1.90;;
40807;SDS011;26523;52.504;13.498;2023-08-01T13:00:45;3.17;;;1.65;;
40807;SDS011;26523;52.504;13.498;2023-08-01T13:03:11;5.95;;;2.40;;
40807;SDS011;26523;52.504;13.498;2023-08-01T13:05:38;3.35;;;1.70;;
40807;SDS011;26523;52.504;13.498;2023-08-01T13:08:05;5.93;;;2.25;;
40807;SDS011;26523;52.504;13.498;2023-08-01T13:10:34;4.40;;;1.90;;
40807;SDS011;26523;52.504;13.498;2023-08-01T13:13:03;4.35;;;2.28;;
40807;SDS011;26523;52.504;13.498;2023-08-01T13:15:30;4.70;;;2.20;;
40807;SDS011;26523;52.504;13.498;2023-08-01T13:17:56;5.40;;;1.92;;
40807;SDS011;26523;52.504;13.498;2023-08-01T13:20:22;4.60;;;1.90;;
40807;SDS011;26523;52.504;13.498;2023-08-01T13:22:49;3.60;;;1.95;;
40807;SDS011;26523;52.504;13.498;2023-08-01T13:25:19;4.88;;;2.00;;
40807;SDS011;26523;52.504;13.498;2023-08-01T13:27:45;4.60;;;2.25;;
40807;SDS011;26523;52.504;13.498;2023-08-01T13:30:13;5.85;;;2.47;;
40807;SDS011;26523;52.504;13.498;2023-08-01T13:32:44;6.13;;;2.33;;
40807;SDS011;26523;52.504;13.498;2023-08-01T13:35:13;5.55;;;2.13;;
40807;SDS011;26523;52.504;13.498;2023-08-01T13:37:39;4.47;;;2.08;;
40807;SDS011;26523;52.504;13.498;2023-08-01T13:40:05;5.43;;;2.53;;
40807;SDS011;26523;52.504;13.498;2023-08-01T13:42:31;4.53;;;2.20;;
40807;SDS011;26523;52.504;13.498;2023-08-01T13:44:59;5.72;;;2.10;;
40807;SDS011;26523;52.504;13.498;2023-08-01T13:47:25;4.72;;;2.42;;
40807;SDS011;26523;52.504;13.498;2023-08-01T13:49:50;4.22;;;2.15;;
40807;SDS011;26523;52.504;13.498;2023-08-01T13:52:16;4.90;;;2.00;;
40807;SDS011;26523;52.504;13.498;2023-08-01T13:54:42;4.93;;;1.92;;
40807;SDS011;26523;52.504;13.498;2023-08-01T13:57:07;4.20;;;1.92;;
40807;SDS011;26523;52.504;13.498;2023-08-01T13:59:34;6.10;;;1.88;;
40807;SDS011;26523;52.504;13.498;2023-08-01T14:02:01;4.65;;;1.80;;
40807;SDS011;26523;52.504;13.498;2023-08-01T14:04:31;6.25;;;2.30;;
40807;SDS011;26523;52.504;13.498;2023-08-01T14:06:57;3.85;;;1.70;;
40807;SDS011;26523;52.504;13.498;2023-08-01T14:09:22;6.43;;;1.90;;
40807;SDS011;26523;52.504;13.498;2023-08-01T14:11:48;3.40;;;1.60;;
40807;SDS011;26523;52.504;13.498;2023-08-01T14:14:15;3.55;;;1.60;;
40807;SDS011;26523;52.504;13.498;2023-08-01T14:16:41;5.45;;;2.40;;
40807;SDS011;26523;52.504;13.498;2023-08-01T14:19:07;6.15;;;2.40;;
40807;SDS011;26523;52.504;13.498;2023-08-01T14:21:35;5.50;;;2.17;;
40807;SDS011;26523;52.504;13.498;2023-08-01T14:24:01;3.85;;;2.47;;
40807;SDS011;26523;52.504;13.498;2023-08-01T14:26:26;5.28;;;2.28;;
40807;SDS011;26523;52.504;13.498;2023-08-01T14:28:52;5.32;;;2.00;;
40807;SDS011;26523;52.504;13.498;2023-08-01T14:31:18;6.35;;;2.10;;
40807;SDS011;26523;52.504;13.498;2023-08-01T14:33:45;6.07;;;2.20;;
40807;SDS011;26523;52.504;13.498;2023-08-01T14:36:11;7.30;;;1.75;;
40807;SDS011;26523;52.504;13.498;2023-08-01T14:38:37;4.47;;;2.00;;
40807;SDS011;26523;52.504;13.498;2023-08-01T14:41:06;4.47;;;2.20;;
40807;SDS011;26523;52.504;13.498;2023-08-01T14:43:31;3.88;;;2.42;;
40807;SDS011;26523;52.504;13.498;2023-08-01T14:45:57;4.40;;;2.00;;
40807;SDS011;26523;52.504;13.498;2023-08-01T14:48:24;5.30;;;2.38;;
40807;SDS011;26523;52.504;13.498;2023-08-01T14:50:50;5.35;;;2.33;;